Time;durP1;ratioP1;P1;durP2;ratioP2;P2;SDS_P1;SDS_P2;PMS_P1;PMS_P2;Temp;Humidity;BMP_temperature;BMP_pressure;BME280_temperature;BME280_humidity;BME280_pressure;Samples;Min_cycle;Max_cycle;Signal;HPM_P1;HPM_P2
2024/01/10 00:01:07;;;;;;;22.17;20.88;;;;;;;0.40;54.42;103001.25;5027229;28;20034;-70
2024/01/10 00:03:32;;;;;;;22.08;20.98;;;;;;;0.41;54.51;103003.81;5027911;28;20096;-73
2024/01/10 00:05:58;;;;;;;21.23;20.23;;;;;;;0.41;54.78;103001.16;5021604;28;20042;-70
2024/01/10 00:08:24;;;;;;;26.33;24.80;;;;;;;0.42;54.37;102992.19;5014702;28;20045;-73
2024/01/10 00:10:50;;;;;;;22.77;21.63;;;;;;;0.42;54.68;102989.53;5014878;28;20049;-70
2024/01/10 00:13:16;;;;;;;24.73;23.33;;;;;;;0.43;54.44;102987.75;5013239;28;20110;-70
2024/01/10 00:15:41;;;;;;;22.67;21.55;;;;;;;0.45;54.74;102979.63;5034939;28;20026;-70
2024/01/10 00:18:07;;;;;;;22.80;21.23;;;;;;;0.43;54.81;102980.59;5037913;28;20496;-72
2024/01/10 00:20:32;;;;;;;22.55;20.92;;;;;;;0.45;54.45;102976.97;5036748;28;20067;-69
2024/01/10 00:22:57;;;;;;;22.90;21.75;;;;;;;0.45;54.67;102979.63;5022562;28;20038;-72
2024/01/10 00:25:23;;;;;;;20.08;19.02;;;;;;;0.44;54.80;102976.13;5015632;28;20614;-72
2024/01/10 00:27:48;;;;;;;23.55;22.33;;;;;;;0.44;54.92;102968.16;5013493;28;20080;-70
2024/01/10 00:30:14;;;;;;;23.83;22.48;;;;;;;0.43;54.99;102972.63;5012423;28;20096;-70
2024/01/10 00:32:39;;;;;;;23.40;22.10;;;;;;;0.43;55.16;102967.31;5033328;28;20423;-72
2024/01/10 00:35:04;;;;;;;23.30;22.10;;;;;;;0.42;55.27;102962.94;5031999;28;20479;-71
2024/01/10 00:37:30;;;;;;;24.45;23.10;;;;;;;0.43;54.83;102961.16;5032786;28;20025;-71
2024/01/10 00:39:55;;;;;;;20.33;19.30;;;;;;;0.43;55.02;102974.44;5013896;28;20125;-73
2024/01/10 00:42:21;;;;;;;21.80;20.42;;;;;;;0.42;54.96;102968.25;5023844;28;20091;-70
2024/01/10 00:44:46;;;;;;;21.92;20.83;;;;;;;0.42;55.06;102973.56;5013029;28;20109;-70
2024/01/10 00:47:11;;;;;;;22.88;21.48;;;;;;;0.41;55.07;102969.25;5012479;28;20026;-71
2024/01/10 00:49:37;;;;;;;21.90;20.75;;;;;;;0.41;55.33;102961.25;5012721;28;20486;-71
2024/01/10 00:52:02;;;;;;;21.08;19.98;;;;;;;0.40;55.34;102962.25;5026526;28;20040;-70
2024/01/10 00:54:28;;;;;;;23.02;21.85;;;;;;;0.40;55.21;102964.91;5015233;28;20033;-71
2024/01/10 00:56:53;;;;;;;23.60;22.08;;;;;;;0.39;55.42;102963.19;5031178;28;20422;-69
2024/01/10 00:59:19;;;;;;;22.63;21.30;;;;;;;0.40;55.21;102959.59;5013331;28;20108;-71
2024/01/10 01:01:44;;;;;;;19.63;18.63;;;;;;;0.39;55.03;102955.22;5013555;28;20489;-72
2024/01/10 01:04:09;;;;;;;22.27;21.02;;;;;;;0.39;55.06;102957.88;5037459;28;20037;-71
2024/01/10 01:06:35;;;;;;;24.55;23.35;;;;;;;0.39;55.04;102951.72;5013593;28;20030;-70
2024/01/10 01:09:00;;;;;;;22.40;21.30;;;;;;;0.38;55.01;102947.38;5025726;28;20030;-70
2024/01/10 01:11:25;;;;;;;20.90;19.67;;;;;;;0.38;55.25;102944.72;5013588;28;20041;-73
2024/01/10 01:13:51;;;;;;;23.05;21.85;;;;;;;0.36;55.20;102947.50;5017220;28;20609;-69
2024/01/10 01:16:16;;;;;;;25.77;24.27;;;;;;;0.35;55.46;102945.81;5011975;28;20041;-72
2024/01/10 01:18:45;;;;;;;20.73;19.70;;;;;;;0.35;55.31;102945.81;5013536;28;20506;-71
2024/01/10 01:21:11;;;;;;;21.70;20.60;;;;;;;0.34;55.18;102943.25;5012932;28;20037;-71
2024/01/10 01:23:36;;;;;;;20.15;19.10;;;;;;;0.32;55.59;102943.38;5017850;28;20492;-71
2024/01/10 01:26:03;;;;;;;23.73;22.52;;;;;;;0.32;55.21;102948.69;5037631;28;20032;-72
2024/01/10 01:28:29;;;;;;;23.45;21.60;;;;;;;0.32;55.30;102942.53;5030407;28;20046;-71
2024/01/10 01:30:54;;;;;;;21.90;20.75;;;;;;;0.31;55.40;102939.03;5019015;28;20409;-71
2024/01/10 01:33:20;;;;;;;25.73;24.10;;;;;;;0.31;55.32;102938.19;5031149;28;20037;-70
2024/01/10 01:35:45;;;;;;;24.73;23.38;;;;;;;0.31;55.42;102938.19;5031838;28;20445;-71
2024/01/10 01:38:11;;;;;;;23.95;22.73;;;;;;;0.29;55.42;102937.47;5031688;28;20048;-73
2024/01/10 01:40:36;;;;;;;23.25;22.05;;;;;;;0.30;55.32;102944.47;5031174;28;20497;-69
2024/01/10 01:43:02;;;;;;;22.65;21.45;;;;;;;0.28;55.24;102946.38;5016871;28;20037;-70
2024/01/10 01:45:27;;;;;;;21.48;20.25;;;;;;;0.28;55.43;102938.41;5031997;28;20025;-71
2024/01/10 01:47:52;;;;;;;23.58;22.38;;;;;;;0.27;55.24;102937.56;5032199;28;20040;-71
2024/01/10 01:50:18;;;;;;;24.92;23.48;;;;;;;0.26;55.71;102935.06;5025292;28;20116;-70
2024/01/10 01:52:44;;;;;;;21.60;20.50;;;;;;;0.26;55.66;102935.06;5027995;28;20041;-70
2024/01/10 01:55:10;;;;;;;21.75;20.65;;;;;;;0.24;55.74;102937.81;5012886;28;20022;-69
2024/01/10 01:57:37;;;;;;;19.77;18.75;;;;;;;0.24;55.34;102940.47;5017119;28;20029;-72
2024/01/10 02:00:04;;;;;;;20.98;19.50;;;;;;;0.24;55.65;102937.81;5033472;28;20037;-71
2024/01/10 02:02:30;;;;;;;23.60;22.20;;;;;;;0.23;55.69;102936.13;5021095;28;20030;-69
2024/01/10 02:04:56;;;;;;;22.00;20.80;;;;;;;0.22;55.81;102937.94;5012650;28;20060;-69
2024/01/10 02:07:21;;;;;;;17.80;16.67;;;;;;;0.22;55.54;102937.09;5010926;28;20029;-72
2024/01/10 02:09:47;;;;;;;26.35;24.75;;;;;;;0.21;55.47;102938.06;5012398;28;20038;-70
2024/01/10 02:12:13;;;;;;;21.05;19.95;;;;;;;0.20;55.82;102926.59;5035474;28;20034;-70
2024/01/10 02:14:38;;;;;;;24.08;22.88;;;;;;;0.19;55.80;102932.00;5016646;28;20045;-69
2024/01/10 02:17:04;;;;;;;25.00;23.60;;;;;;;0.18;55.57;102927.69;5020524;28;20037;-71
2024/01/10 02:19:31;;;;;;;21.10;19.73;;;;;;;0.17;55.80;102934.78;5029669;28;20033;-70
2024/01/10 02:21:56;;;;;;;24.95;23.70;;;;;;;0.17;55.72;102925.97;5027513;28;20034;-71
2024/01/10 02:24:21;;;;;;;20.35;19.05;;;;;;;0.17;55.84;102923.31;5017358;28;20029;-70
2024/01/10 02:26:47;;;;;;;22.60;21.40;;;;;;;0.15;55.50;102917.25;5012221;28;20106;-69
2024/01/10 02:29:13;;;;;;;20.70;19.60;;;;;;;0.16;55.65;102932.25;5019281;28;20533;-71
2024/01/10 02:31:39;;;;;;;23.90;22.65;;;;;;;0.16;55.61;102926.94;5025530;28;20033;-70
2024/01/10 02:34:04;;;;;;;24.10;22.80;;;;;;;0.14;55.81;102928.88;5017682;28;20038;-74
2024/01/10 02:36:29;;;;;;;22.30;21.00;;;;;;;0.13;55.69;102919.22;5031573;28;20433;-70
2024/01/10 02:38:55;;;;;;;22.13;21.03;;;;;;;0.11;55.54;102908.69;5030314;28;20113;-72
2024/01/10 02:41:21;;;;;;;19.87;18.80;;;;;;;0.12;55.72;102912.19;5015837;28;20034;-70
2024/01/10 02:43:46;;;;;;;20.45;19.45;;;;;;;0.10;55.83;102914.13;5012139;28;20088;-72
2024/01/10 02:46:11;;;;;;;21.95;20.77;;;;;;;0.10;55.94;102914.13;5011769;28;20030;-72
2024/01/10 02:48:37;;;;;;;22.33;20.95;;;;;;;0.09;55.69;102912.44;5010588;28;20042;-72
2024/01/10 02:51:02;;;;;;;23.45;22.27;;;;;;;0.08;56.05;102910.78;5028684;28;20033;-70
2024/01/10 02:53:29;;;;;;;21.43;20.03;;;;;;;0.08;55.95;102908.94;5027648;28;20398;-69
2024/01/10 02:55:55;;;;;;;19.35;18.35;;;;;;;0.07;56.00;102909.91;5012125;28;20092;-74
2024/01/10 02:58:22;;;;;;;20.65;19.55;;;;;;;0.07;56.13;102906.41;5016589;28;20474;-75
2024/01/10 03:00:47;;;;;;;22.17;21.02;;;;;;;0.06;55.66;102904.72;5012144;28;20037;-69
2024/01/10 03:03:13;;;;;;;19.73;18.30;;;;;;;0.04;55.67;102909.31;5010636;28;20091;-70
2024/01/10 03:05:39;;;;;;;23.20;21.75;;;;;;;0.05;55.95;102903.00;5002282;28;20172;-71
2024/01/10 03:08:06;;;;;;;24.85;23.25;;;;;;;0.03;55.85;102892.53;5030355;28;20124;-72
2024/01/10 03:10:31;;;;;;;22.60;21.25;;;;;;;0.02;56.07;102889.97;5020816;28;20038;-70
2024/01/10 03:12:57;;;;;;;23.15;21.95;;;;;;;0.00;55.71;102892.78;5030093;28;20381;-71
2024/01/10 03:15:23;;;;;;;18.10;17.20;;;;;;;-0.01;55.94;102889.25;5029918;28;20092;-70
2024/01/10 03:17:48;;;;;;;21.63;20.52;;;;;;;-0.01;56.04;102889.25;5022765;28;20069;-70
2024/01/10 03:20:14;;;;;;;20.67;19.10;;;;;;;-0.01;55.77;102878.63;5012182;28;20116;-69
2024/01/10 03:22:39;;;;;;;21.95;20.73;;;;;;;-0.02;56.06;102884.91;5011577;28;20470;-73
2024/01/10 03:25:05;;;;;;;21.05;19.95;;;;;;;-0.03;56.03;102885.84;5027812;28;20026;-72
2024/01/10 03:27:30;;;;;;;24.08;22.38;;;;;;;-0.03;55.69;102879.69;5015228;28;20069;-71
2024/01/10 03:29:55;;;;;;;22.27;21.08;;;;;;;-0.05;55.76;102885.16;5019628;28;20486;-68
2024/01/10 03:32:21;;;;;;;21.98;20.77;;;;;;;-0.06;56.07;102877.28;5010102;28;20072;-69
2024/01/10 03:34:46;;;;;;;19.05;17.98;;;;;;;-0.07;55.74;102884.44;5023581;28;20025;-67
2024/01/10 03:37:12;;;;;;;21.90;20.70;;;;;;;-0.08;55.80;102885.38;5018452;28;20058;-68
2024/01/10 03:39:37;;;;;;;20.00;18.80;;;;;;;-0.10;55.91;102882.00;5028344;28;20516;-69
2024/01/10 03:42:03;;;;;;;19.97;18.87;;;;;;;-0.09;55.73;102872.22;5024433;28;20083;-70
2024/01/10 03:44:28;;;;;;;23.93;22.37;;;;;;;-0.10;56.13;102867.84;5029006;28;20060;-68
2024/01/10 03:46:53;;;;;;;20.63;19.60;;;;;;;-0.12;55.77;102865.34;5030264;28;20044;-67
2024/01/10 03:49:19;;;;;;;20.37;19.27;;;;;;;-0.13;56.45;102863.63;5029993;28;20038;-72
2024/01/10 03:51:44;;;;;;;21.55;20.25;;;;;;;-0.15;56.53;102862.94;5030325;28;20151;-71
2024/01/10 03:54:09;;;;;;;20.70;19.60;;;;;;;-0.16;56.47;102866.53;5012992;28;20397;-68
2024/01/10 03:56:35;;;;;;;25.43;23.77;;;;;;;-0.17;56.10;102856.06;5030402;28;20465;-68
2024/01/10 03:59:01;;;;;;;23.37;22.17;;;;;;;-0.19;56.11;102857.97;5023637;28;20087;-67
2024/01/10 04:01:26;;;;;;;20.67;19.58;;;;;;;-0.20;56.25;102857.13;5028846;28;20026;-69
2024/01/10 04:03:52;;;;;;;18.20;17.20;;;;;;;-0.22;56.26;102849.28;5022828;28;20033;-68
2024/01/10 04:06:17;;;;;;;20.53;19.47;;;;;;;-0.23;55.82;102852.03;5028769;28;20391;-69
2024/01/10 04:08:43;;;;;;;23.30;21.73;;;;;;;-0.26;55.55;102861.09;5024880;28;20100;-68
2024/01/10 04:11:09;;;;;;;21.48;20.38;;;;;;;-0.29;55.66;102850.72;5034371;28;20025;-68
2024/01/10 04:13:34;;;;;;;20.40;19.17;;;;;;;-0.31;56.04;102846.50;5032469;28;20132;-68
2024/01/10 04:16:00;;;;;;;19.80;18.70;;;;;;;-0.30;56.04;102854.34;5021158;28;20116;-69
2024/01/10 04:18:25;;;;;;;20.10;19.10;;;;;;;-0.30;56.47;102845.53;5033909;28;20119;-70
2024/01/10 04:20:51;;;;;;;23.17;21.95;;;;;;;-0.30;56.17;102849.03;5032400;28;20385;-70
2024/01/10 04:23:17;;;;;;;20.67;19.47;;;;;;;-0.31;56.18;102849.97;5032213;28;20117;-68
2024/01/10 04:25:42;;;;;;;22.67;20.77;;;;;;;-0.30;56.18;102843.72;5034782;28;20540;-68
2024/01/10 04:28:08;;;;;;;18.03;17.10;;;;;;;-0.30;56.43;102846.38;5029621;28;20042;-69
2024/01/10 04:30:33;;;;;;;20.03;18.93;;;;;;;-0.29;56.24;102842.75;5013883;28;20390;-70
2024/01/10 04:32:58;;;;;;;20.77;19.57;;;;;;;-0.29;56.75;102841.91;5027497;28;20048;-68
2024/01/10 04:35:24;;;;;;;19.77;18.67;;;;;;;-0.29;56.53;102842.75;5017925;28;20044;-68
2024/01/10 04:37:49;;;;;;;23.27;21.83;;;;;;;-0.28;56.55;102843.59;5028894;28;20548;-69
2024/01/10 04:40:15;;;;;;;20.13;19.03;;;;;;;-0.28;56.53;102833.84;5012857;28;20478;-68
2024/01/10 04:42:40;;;;;;;23.83;22.37;;;;;;;-0.29;56.37;102836.59;5017458;28;20109;-69
2024/01/10 04:45:07;;;;;;;22.27;21.10;;;;;;;-0.29;56.50;102837.44;5031835;28;20394;-69
2024/01/10 04:47:32;;;;;;;21.83;20.73;;;;;;;-0.30;56.33;102835.75;5033337;28;20068;-68
2024/01/10 04:49:58;;;;;;;21.02;19.83;;;;;;;-0.29;56.42;102840.09;5028908;28;20452;-68
2024/01/10 04:52:23;;;;;;;20.70;19.60;;;;;;;-0.29;56.69;102844.56;5033410;28;20096;-67
2024/01/10 04:54:49;;;;;;;20.80;19.50;;;;;;;-0.29;56.36;102840.09;5035886;28;20041;-69
2024/01/10 04:57:15;;;;;;;22.20;19.93;;;;;;;-0.28;56.40;102838.28;5013489;28;20471;-68
2024/01/10 04:59:41;;;;;;;20.55;19.25;;;;;;;-0.30;56.43;102833.09;5035015;28;20038;-67
2024/01/10 05:02:06;;;;;;;18.90;17.80;;;;;;;-0.30;56.73;102835.75;5033031;28;20351;-70
2024/01/10 05:04:32;;;;;;;20.13;19.03;;;;;;;-0.31;56.43;102834.06;5016855;28;20390;-68
2024/01/10 05:06:57;;;;;;;18.97;17.97;;;;;;;-0.32;56.16;102839.50;5027035;28;20029;-69
2024/01/10 05:09:23;;;;;;;17.47;16.50;;;;;;;-0.32;56.46;102842.16;5011480;28;20038;-68
2024/01/10 05:11:51;;;;;;;22.37;21.00;;;;;;;-0.32;56.31;102842.16;5020231;28;20397;-70
2024/01/10 05:14:16;;;;;;;19.63;18.60;;;;;;;-0.34;56.59;102842.25;5028395;28;20033;-69
2024/01/10 05:16:42;;;;;;;21.95;20.58;;;;;;;-0.35;56.53;102835.28;5029666;28;20072;-69
2024/01/10 05:19:07;;;;;;;20.57;19.47;;;;;;;-0.35;56.58;102839.72;5012200;28;20467;-69
2024/01/10 05:21:33;;;;;;;22.30;21.20;;;;;;;-0.36;56.49;102838.03;4995744;28;20482;-68
2024/01/10 05:23:59;;;;;;;21.70;20.40;;;;;;;-0.37;56.42;102837.19;5025922;28;20107;-67
2024/01/10 05:26:24;;;;;;;18.92;17.92;;;;;;;-0.37;56.35;102831.88;5032380;28;20045;-69
2024/01/10 05:28:49;;;;;;;23.52;22.13;;;;;;;-0.37;56.63;102833.69;5014192;28;20041;-68
2024/01/10 05:31:15;;;;;;;19.70;18.58;;;;;;;-0.39;56.55;102832.97;5013473;28;20061;-68
2024/01/10 05:33:42;;;;;;;19.10;18.07;;;;;;;-0.39;56.81;102827.66;5032077;28;20038;-70
2024/01/10 05:36:11;;;;;;;17.30;16.38;;;;;;;-0.39;56.64;102832.97;5029101;28;20057;-67
2024/01/10 05:38:37;;;;;;;23.05;21.73;;;;;;;-0.39;56.61;102840.94;5012820;28;20034;-69
2024/01/10 05:41:02;;;;;;;20.65;19.55;;;;;;;-0.40;56.44;102836.56;5025735;28;20107;-68
2024/01/10 05:43:28;;;;;;;20.17;19.03;;;;;;;-0.41;56.82;102833.06;5032236;28;20029;-68
2024/01/10 05:45:53;;;;;;;25.17;23.50;;;;;;;-0.43;56.62;102837.66;5025758;28;20128;-69
2024/01/10 05:48:18;;;;;;;21.80;20.48;;;;;;;-0.45;56.26;102834.28;5013247;28;20074;-69
2024/01/10 05:50:44;;;;;;;21.27;19.90;;;;;;;-0.47;56.32;102833.56;5011163;28;20041;-68
2024/01/10 05:53:10;;;;;;;22.73;21.53;;;;;;;-0.48;56.66;102831.84;5012502;28;20117;-69
2024/01/10 05:55:36;;;;;;;20.00;18.80;;;;;;;-0.49;56.72;102827.53;5014198;28;20049;-69
2024/01/10 05:58:02;;;;;;;19.10;18.00;;;;;;;-0.50;56.43;102826.69;5028800;28;20029;-70
2024/01/10 06:00:28;;;;;;;21.97;20.77;;;;;;;-0.50;56.77;102832.00;5010992;28;20095;-68
2024/01/10 06:02:53;;;;;;;20.63;19.33;;;;;;;-0.51;56.65;102830.28;5011987;28;20041;-69
2024/01/10 06:05:19;;;;;;;21.13;20.03;;;;;;;-0.52;56.79;102833.91;5011502;28;20135;-69
2024/01/10 06:07:44;;;;;;;20.67;19.53;;;;;;;-0.52;56.79;102831.25;5027097;28;20033;-71
2024/01/10 06:10:10;;;;;;;21.27;20.17;;;;;;;-0.52;56.60;102823.28;5012440;28;20112;-70
2024/01/10 06:12:36;;;;;;;19.23;18.23;;;;;;;-0.53;56.40;102834.03;5018950;28;20034;-69
2024/01/10 06:15:02;;;;;;;20.10;18.77;;;;;;;-0.56;56.28;102835.09;5040691;28;20113;-69
2024/01/10 06:17:28;;;;;;;16.97;16.07;;;;;;;-0.57;56.30;102822.81;5038680;28;20036;-68
2024/01/10 06:19:53;;;;;;;20.93;19.23;;;;;;;-0.57;56.38;102824.63;5023806;28;20041;-70
2024/01/10 06:22:24;;;;;;;17.10;16.20;;;;;;;-0.58;56.35;102825.56;5010808;28;20084;-68
2024/01/10 06:24:50;;;;;;;20.80;19.30;;;;;;;-0.59;56.58;102821.25;5026981;28;20044;-68
2024/01/10 06:27:15;;;;;;;20.87;19.73;;;;;;;-0.59;56.17;102829.19;5019674;28;20037;-69
2024/01/10 06:29:41;;;;;;;17.70;16.70;;;;;;;-0.61;56.62;102813.38;5026239;28;20502;-69
2024/01/10 06:32:07;;;;;;;19.97;18.87;;;;;;;-0.61;56.63;102820.50;5035260;28;20049;-68
2024/01/10 06:34:33;;;;;;;21.17;19.97;;;;;;;-0.61;56.42;102813.38;5031102;28;20038;-69
2024/01/10 06:36:59;;;;;;;23.10;21.70;;;;;;;-0.61;56.85;102818.69;5023476;28;20080;-68
2024/01/10 06:39:24;;;;;;;19.37;18.37;;;;;;;-0.61;56.91;102818.69;5027307;28;20037;-68
2024/01/10 06:41:50;;;;;;;17.67;16.67;;;;;;;-0.60;56.65;102824.88;5029707;28;20029;-67
2024/01/10 06:44:17;;;;;;;19.80;18.77;;;;;;;-0.61;56.77;102813.38;5031733;28;20127;-67
2024/01/10 06:46:43;;;;;;;20.07;19.07;;;;;;;-0.61;56.76;102813.38;5031161;28;20129;-68
2024/01/10 06:49:09;;;;;;;21.00;19.90;;;;;;;-0.61;56.87;102812.53;5030187;28;20116;-68
2024/01/10 06:51:34;;;;;;;22.40;21.20;;;;;;;-0.62;56.59;102814.34;5023750;28;20549;-68
2024/01/10 06:54:03;;;;;;;20.30;18.83;;;;;;;-0.61;56.95;102813.38;5017160;28;20087;-69
2024/01/10 06:56:32;;;;;;;17.17;16.17;;;;;;;-0.61;56.64;102823.16;5030923;28;20474;-68
2024/01/10 06:58:59;;;;;;;21.93;20.57;;;;;;;-0.62;56.59;102834.75;5034165;28;20033;-68
2024/01/10 07:01:24;;;;;;;20.53;19.03;;;;;;;-0.64;56.55;102832.19;5033368;28;20037;-68
2024/01/10 07:03:51;;;;;;;21.30;20.20;;;;;;;-0.66;56.94;102827.03;5010274;28;20046;-74
2024/01/10 07:06:16;;;;;;;20.20;19.10;;;;;;;-0.65;56.93;102827.88;5026897;28;20033;-68
2024/01/10 07:08:42;;;;;;;19.33;18.23;;;;;;;-0.66;56.94;102834.13;5030295;28;20033;-68
2024/01/10 07:11:08;;;;;;;24.40;22.77;;;;;;;-0.67;56.94;102838.59;5047350;28;20047;-69
2024/01/10 07:13:34;;;;;;;17.40;16.47;;;;;;;-0.67;56.61;102829.78;5011755;28;20025;-69
2024/01/10 07:16:02;;;;;;;21.60;20.13;;;;;;;-0.69;56.68;102842.31;5016504;28;20493;-68
2024/01/10 07:18:28;;;;;;;23.38;22.17;;;;;;;-0.72;56.79;102837.25;5021658;28;20128;-68
2024/01/10 07:20:53;;;;;;;22.60;21.37;;;;;;;-0.75;56.45;102842.81;5022092;28;20531;-68
2024/01/10 07:23:19;;;;;;;21.27;19.87;;;;;;;-0.77;56.66;102834.94;5029411;28;20030;-68
2024/01/10 07:25:44;;;;;;;20.07;18.97;;;;;;;-0.75;56.95;102842.81;5022980;28;20032;-68
2024/01/10 07:28:10;;;;;;;18.63;17.33;;;;;;;-0.75;56.74;102832.19;5028256;28;20034;-69
2024/01/10 07:30:35;;;;;;;18.00;17.00;;;;;;;-0.74;56.75;102837.38;5028574;28;20418;-70
2024/01/10 07:33:01;;;;;;;21.73;20.40;;;;;;;-0.75;56.88;102837.50;5022175;28;20022;-68
2024/01/10 07:35:27;;;;;;;20.13;18.93;;;;;;;-0.75;56.58;102832.19;5023057;28;20044;-68
2024/01/10 07:37:52;;;;;;;20.20;18.97;;;;;;;-0.75;56.67;102827.72;5030385;28;20475;-68
2024/01/10 07:40:18;;;;;;;20.30;18.80;;;;;;;-0.75;57.15;102830.38;5028361;28;20041;-69
2024/01/10 07:42:43;;;;;;;19.97;18.77;;;;;;;-0.75;57.02;102825.06;5030363;28;20048;-69
2024/01/10 07:45:09;;;;;;;19.40;18.10;;;;;;;-0.74;56.86;102828.56;5029970;28;20478;-68
2024/01/10 07:47:38;;;;;;;19.27;18.23;;;;;;;-0.74;56.95;102828.56;5030262;28;20041;-70
2024/01/10 07:50:14;;;;;;;22.55;20.85;;;;;;;-0.73;57.23;102822.28;5030118;28;20037;-69
2024/01/10 07:52:40;;;;;;;20.40;19.10;;;;;;;-0.75;56.94;102819.75;5024303;28;20037;-68
2024/01/10 07:55:06;;;;;;;21.53;20.03;;;;;;;-0.74;56.77;102828.56;5030326;28;20547;-74
2024/01/10 07:57:33;;;;;;;20.10;18.70;;;;;;;-0.75;57.04;102827.72;5029317;28;20029;-68
2024/01/10 07:59:59;;;;;;;19.67;18.37;;;;;;;-0.76;57.11;102822.53;5029289;28;20030;-73
2024/01/10 08:02:24;;;;;;;19.67;18.60;;;;;;;-0.76;56.76;102830.47;5029738;28;20135;-69
2024/01/10 08:04:51;;;;;;;19.53;18.33;;;;;;;-0.77;57.20;102824.34;5012734;28;20065;-69
2024/01/10 08:07:16;;;;;;;23.47;21.87;;;;;;;-0.76;57.07;102830.47;5029230;28;20121;-69
2024/01/10 08:09:42;;;;;;;21.67;20.10;;;;;;;-0.77;56.87;102827.00;5027480;28;20612;-70
2024/01/10 08:12:07;;;;;;;24.53;22.53;;;;;;;-0.78;56.86;102833.28;5028037;28;20038;-68
2024/01/10 08:14:33;;;;;;;20.57;18.60;;;;;;;-0.83;57.02;102822.16;5027516;28;20037;-69
2024/01/10 08:17:00;;;;;;;19.20;18.00;;;;;;;-0.85;57.00;102832.03;5040879;28;20077;-73
2024/01/10 08:19:26;;;;;;;19.77;18.53;;;;;;;-0.85;57.05;102839.16;5028072;28;20061;-70
2024/01/10 08:21:54;;;;;;;20.63;19.20;;;;;;;-0.85;57.10;102839.16;5030324;28;20113;-69
2024/01/10 08:24:20;;;;;;;20.95;19.55;;;;;;;-0.87;57.04;102840.09;5028038;28;20474;-70
2024/01/10 08:26:51;;;;;;;23.47;21.77;;;;;;;-0.87;56.92;102841.91;5028147;28;20025;-70
2024/01/10 08:29:19;;;;;;;23.10;20.93;;;;;;;-0.90;56.76;102843.00;5026792;28;20046;-68
2024/01/10 08:31:45;;;;;;;20.37;19.13;;;;;;;-0.93;56.61;102847.69;5028765;28;20085;-68
2024/01/10 08:34:10;;;;;;;24.23;22.23;;;;;;;-0.96;56.46;102848.78;5027486;28;20045;-68
2024/01/10 08:36:37;;;;;;;22.70;20.57;;;;;;;-1.00;56.69;102844.66;5029119;28;20092;-69
2024/01/10 08:39:03;;;;;;;18.83;17.63;;;;;;;-1.01;56.34;102852.72;5027907;28;20065;-69
2024/01/10 08:41:29;;;;;;;21.27;19.93;;;;;;;-1.05;56.36;102849.44;5029613;28;20029;-69
2024/01/10 08:43:54;;;;;;;20.30;18.87;;;;;;;-1.09;56.27;102855.94;5029015;28;20071;-69
2024/01/10 08:46:20;;;;;;;19.93;18.67;;;;;;;-1.14;56.65;102842.16;5028387;28;20029;-74
2024/01/10 08:48:47;;;;;;;22.03;20.33;;;;;;;-1.15;56.70;102840.50;5026019;28;20524;-70
2024/01/10 08:51:15;;;;;;;17.37;16.07;;;;;;;-1.17;56.76;102837.94;5029322;28;20044;-69
2024/01/10 08:53:41;;;;;;;20.15;18.85;;;;;;;-1.15;56.55;102853.75;5026550;28;20049;-75
2024/01/10 08:56:07;;;;;;;17.60;16.40;;;;;;;-1.15;56.96;102843.97;5027631;28;20041;-69
2024/01/10 08:58:32;;;;;;;19.37;18.10;;;;;;;-1.13;56.69;102844.72;5027406;28;20087;-69
2024/01/10 09:00:58;;;;;;;21.73;20.27;;;;;;;-1.12;56.66;102843.75;5027851;28;20033;-69
2024/01/10 09:03:23;;;;;;;19.83;18.57;;;;;;;-1.14;56.28;102839.53;5010141;28;20037;-69
2024/01/10 09:05:48;;;;;;;20.10;18.80;;;;;;;-1.14;56.25;102840.34;5027862;28;20038;-69
2024/01/10 09:08:15;;;;;;;20.50;18.93;;;;;;;-1.16;56.47;102833.47;5027463;28;20027;-69
2024/01/10 09:10:41;;;;;;;23.37;21.37;;;;;;;-1.21;56.23;102849.75;5028486;28;20041;-69
2024/01/10 09:13:07;;;;;;;21.27;19.67;;;;;;;-1.26;56.28;102853.69;5028271;28;20037;-69
2024/01/10 09:15:32;;;;;;;18.50;17.27;;;;;;;-1.31;56.29;102852.22;5028390;28;20120;-68
2024/01/10 09:17:57;;;;;;;18.87;17.60;;;;;;;-1.29;56.17;102860.06;5027694;28;20406;-68
2024/01/10 09:20:23;;;;;;;23.47;21.87;;;;;;;-1.28;56.33;102853.81;5041732;28;20048;-69
2024/01/10 09:22:49;;;;;;;23.33;21.57;;;;;;;-1.29;55.71;102851.25;5027525;28;20393;-68
2024/01/10 09:25:14;;;;;;;21.63;19.83;;;;;;;-1.33;55.86;102861.25;5024259;28;20516;-72
2024/01/10 09:27:44;;;;;;;21.97;20.13;;;;;;;-1.36;55.59;102862.34;5028129;28;20025;-69
2024/01/10 09:30:10;;;;;;;21.00;19.27;;;;;;;-1.40;55.50;102863.50;5031882;28;20110;-71
2024/01/10 09:32:36;;;;;;;22.50;20.70;;;;;;;-1.44;55.28;102859.38;5025293;28;20038;-68
2024/01/10 09:35:03;;;;;;;22.07;20.43;;;;;;;-1.51;54.94;102863.44;5031423;28;20040;-69
2024/01/10 09:37:28;;;;;;;19.67;18.20;;;;;;;-1.56;54.90;102857.63;5024351;28;20033;-68
2024/01/10 09:39:54;;;;;;;20.63;19.07;;;;;;;-1.58;55.10;102860.38;5031078;28;20864;-70
2024/01/10 09:42:25;;;;;;;22.07;20.37;;;;;;;-1.56;55.65;102857.63;5028488;28;20504;-69
2024/01/10 09:44:50;;;;;;;21.10;19.17;;;;;;;-1.54;55.03;102866.31;5025540;28;20033;-68
2024/01/10 09:47:17;;;;;;;21.43;19.73;;;;;;;-1.55;55.44;102861.97;5025249;28;20052;-67
2024/01/10 09:49:45;;;;;;;21.73;20.13;;;;;;;-1.55;55.04;102864.63;5028562;28;20038;-68
2024/01/10 09:52:19;;;;;;;23.15;21.15;;;;;;;-1.55;55.69;102877.88;4993207;28;20041;-69
2024/01/10 09:54:46;;;;;;;19.60;18.13;;;;;;;-1.53;55.45;102870.66;5028197;28;20470;-70
2024/01/10 09:57:12;;;;;;;25.77;23.30;;;;;;;-1.50;55.41;102870.44;5027148;28;20044;-69
2024/01/10 09:59:38;;;;;;;18.67;17.53;;;;;;;-1.47;56.21;102872.00;5012419;28;20137;-70
2024/01/10 10:02:04;;;;;;;22.17;20.53;;;;;;;-1.44;55.58;102871.78;5025634;28;20367;-68
2024/01/10 10:04:30;;;;;;;18.27;17.13;;;;;;;-1.42;55.93;102869.88;5029990;28;20780;-70
2024/01/10 10:07:01;;;;;;;20.90;19.50;;;;;;;-1.39;55.88;102867.00;5025065;28;20030;-70
2024/01/10 10:09:28;;;;;;;24.83;22.60;;;;;;;-1.38;55.54;102866.91;5027072;28;20047;-68
2024/01/10 10:11:59;;;;;;;20.03;18.70;;;;;;;-1.38;55.37;102868.72;5025530;28;20545;-67
2024/01/10 10:14:28;;;;;;;23.83;22.00;;;;;;;-1.40;55.39;102871.47;5013983;28;20037;-69
2024/01/10 10:16:54;;;;;;;23.17;21.57;;;;;;;-1.40;55.17;102858.19;5026791;28;20514;-69
2024/01/10 10:19:23;;;;;;;23.67;21.57;;;;;;;-1.37;55.04;102860.63;5033084;28;20101;-66
2024/01/10 10:21:48;;;;;;;20.90;19.47;;;;;;;-1.35;55.33;102861.38;5025134;28;20196;-69
2024/01/10 10:24:14;;;;;;;22.60;20.93;;;;;;;-1.34;55.36;102867.50;5028796;28;20049;-67
2024/01/10 10:26:41;;;;;;;21.27;19.87;;;;;;;-1.33;55.07;102858.59;5026863;28;20117;-72
2024/01/10 10:29:06;;;;;;;23.97;21.77;;;;;;;-1.35;55.17;102856.06;5026867;28;20069;-66
2024/01/10 10:31:32;;;;;;;24.17;22.07;;;;;;;-1.37;55.04;102857.97;5030026;28;20583;-66
2024/01/10 10:33:59;;;;;;;20.83;19.50;;;;;;;-1.36;54.74;102859.69;5033828;28;20046;-69
2024/01/10 10:36:25;;;;;;;19.70;18.27;;;;;;;-1.35;55.18;102860.53;5037534;28;20096;-68
2024/01/10 10:38:50;;;;;;;24.83;22.43;;;;;;;-1.34;55.13;102859.56;5026191;28;20029;-69
2024/01/10 10:41:16;;;;;;;22.27;20.70;;;;;;;-1.34;54.89;102862.19;5025317;28;20099;-67
2024/01/10 10:43:42;;;;;;;20.37;18.93;;;;;;;-1.33;54.89;102864.75;5028434;28;20120;-67
2024/01/10 10:46:09;;;;;;;22.00;20.40;;;;;;;-1.32;56.35;102855.00;5028613;28;20064;-67
2024/01/10 10:48:36;;;;;;;21.33;19.53;;;;;;;-1.30;55.76;102850.44;5030469;28;20478;-72
2024/01/10 10:51:07;;;;;;;19.83;18.53;;;;;;;-1.27;56.12;102847.53;5028187;28;20108;-68
2024/01/10 10:53:35;;;;;;;22.47;20.90;;;;;;;-1.25;55.56;102847.44;5030692;28;20037;-66
2024/01/10 10:56:03;;;;;;;21.30;19.70;;;;;;;-1.23;55.64;102837.56;5027229;28;20612;-68
2024/01/10 10:58:30;;;;;;;21.10;19.70;;;;;;;-1.19;55.67;102842.50;5028304;28;20093;-66
2024/01/10 11:00:57;;;;;;;20.83;19.33;;;;;;;-1.18;55.81;102841.56;5030477;28;20029;-66
2024/01/10 11:03:24;;;;;;;22.40;20.30;;;;;;;-1.15;55.58;102841.34;5028049;28;20363;-68
2024/01/10 11:05:51;;;;;;;22.40;20.53;;;;;;;-1.12;55.38;102837.59;5031128;28;20076;-68